CDT,Max TemperatureF,Mean TemperatureF,Min TemperatureF,Max Dew PointF,MeanDew PointF,Min DewpointF,Max Humidity, Mean Humidity, Min Humidity, Max Sea Level PressureIn, Mean Sea Level PressureIn, Min Sea Level PressureIn, Max VisibilityMiles, Mean VisibilityMiles, Min VisibilityMiles, Max Wind SpeedMPH, Mean Wind SpeedMPH, Max Gust SpeedMPH,PrecipitationIn, CloudCover, Events, WindDirDegrees
2012-9-1,75,72,70,66,61,56,84,69,57,30.13,30.08,30.01,10,10,9,16,12,22,0.00,3,Rain,47
2012-9-2,81,74,68,67,65,61,93,74,52,30.01,29.97,29.94,10,10,10,15,10,17,0.00,4,,59
2012-9-3,82,74,68,69,68,66,96,80,65,29.97,29.93,29.89,10,8,2,8,2,,0.03,0,Rain,96
2012-9-4,81,72,64,71,68,61,100,88,69,29.96,29.90,29.84,10,6,1,20,7,32,1.60,4,Rain-Thunderstorm,223
2012-9-5,79,70,63,68,64,56,97,82,53,29.92,29.82,29.70,10,10,5,17,6,33,0.13,3,Rain,184
2012-9-6,81,72,63,67,63,51,97,78,36,29.94,29.91,29.84,10,9,4,9,5,,0.01,0,,337
2012-9-7,75,66,57,65,60,54,97,85,62,29.93,29.85,29.80,10,8,2,18,5,30,0.25,4,Rain,344
2012-9-8,69,60,51,56,50,45,97,72,43,29.90,29.87,29.83,10,10,4,17,8,22,0.00,1,Rain,303
2012-9-9,69,60,52,55,51,47,97,76,49,30.17,30.05,29.90,10,10,9,18,8,28,0.01,1,,340
2012-9-10,73,62,52,57,51,48,86,66,44,30.23,30.17,30.10,10,10,10,17,8,25,0.00,0,,217
2012-9-11,82,70,57,56,53,49,72,54,35,30.13,30.08,30.03,10,10,10,17,10,26,0.00,0,,208
2012-9-12,82,72,63,64,58,47,81,61,49,30.15,30.10,30.07,10,10,10,16,10,18,0.00,0,,199
2012-9-13,64,58,52,53,51,46,97,82,58,30.35,30.29,30.16,10,7,2,14,9,23,0.16,6,Rain,334
2012-9-14,73,62,50,52,48,41,96,68,31,30.36,30.32,30.28,10,9,6,9,6,,0.01,0,,293
2012-9-15,73,62,51,57,52,43,96,69,35,30.32,30.24,30.14,10,10,10,14,3,,0.00,0,,177
2012-9-16,75,65,55,56,49,43,80,58,31,30.13,30.06,29.97,10,10,10,12,6,22,0.00,0,,226
2012-9-17,78,67,55,62,55,48,90,76,54,29.96,29.83,29.75,10,9,2,17,9,26,0.08,5,Rain-Thunderstorm,275
2012-9-18,60,52,44,47,39,30,90,65,35,30.04,29.92,29.82,10,10,10,15,10,25,0.00,3,,309
2012-9-19,72,54,37,48,39,34,89,54,31,30.07,29.93,29.77,10,10,10,22,9,34,0.03,3,Thunderstorm,211
2012-9-20,69,60,50,48,40,30,80,53,26,29.93,29.88,29.83,10,10,10,14,7,23,0.00,0,,270
2012-9-21,59,52,48,49,44,37,93,76,47,29.94,29.88,29.81,10,10,4,12,6,21,0.17,6,Rain,242
2012-9-22,57,50,42,48,43,37,100,85,53,30.18,29.92,29.79,10,7,0,20,6,30,0.01,4,Fog-Rain-Thunderstorm,286
2012-9-23,57,47,37,37,33,29,89,62,34,30.27,30.23,30.18,10,10,10,14,7,21,0.00,1,,289
2012-9-24,69,54,39,38,34,30,79,49,26,30.23,30.05,29.86,10,10,10,20,8,26,0.00,0,,235
2012-9-25,77,63,53,56,48,38,90,62,40,29.89,29.85,29.80,10,10,10,17,10,21,0.00,0,,236
2012-9-26,63,58,52,54,48,36,96,74,51,30.21,30.05,29.91,10,10,10,16,10,24,0.00,1,,13
2012-9-27,63,58,53,49,46,41,77,67,58,30.25,30.22,30.19,10,10,10,17,11,24,0.00,6,,35
2012-9-28,64,56,48,50,47,44,92,74,48,30.23,30.18,30.14,10,10,9,14,7,21,0.00,1,,4
2012-9-29,73,60,48,55,46,42,93,69,36,30.13,30.06,30.01,10,10,9,14,5,,0.00,0,,329
2012-9-30,64,54,44,51,46,42,97,76,50,30.04,30.00,29.98,10,10,8,13,6,18,0.00,1,,18